sensor_id;sensor_type;location;lat;lon;timestamp;P1;durP1;ratioP1;P2;durP2;ratioP2
42098;SDS011;27758;55.900;8.516;2023-08-31T00:02:13;15.35;;;10.90;;
42098;SDS011;27758;55.900;8.516;2023-08-31T00:04:38;16.05;;;10.85;;
42098;SDS011;27758;55.900;8.516;2023-08-31T00:07:04;14.45;;;10.73;;
42098;SDS011;27758;55.900;8.516;2023-08-31T00:09:30;15.02;;;10.95;;
42098;SDS011;27758;55.900;8.516;2023-08-31T00:11:56;16.00;;;10.38;;
42098;SDS011;27758;55.900;8.516;2023-08-31T00:14:22;14.18;;;10.45;;
42098;SDS011;27758;55.900;8.516;2023-08-31T00:16:48;15.43;;;10.32;;
42098;SDS011;27758;55.900;8.516;2023-08-31T00:19:15;14.38;;;10.85;;
42098;SDS011;27758;55.900;8.516;2023-08-31T00:21:41;15.90;;;12.10;;
42098;SDS011;27758;55.900;8.516;2023-08-31T00:24:07;15.23;;;10.32;;
42098;SDS011;27758;55.900;8.516;2023-08-31T00:26:35;15.70;;;11.15;;
42098;SDS011;27758;55.900;8.516;2023-08-31T00:29:05;14.43;;;10.18;;
42098;SDS011;27758;55.900;8.516;2023-08-31T00:31:30;15.05;;;11.13;;
42098;SDS011;27758;55.900;8.516;2023-08-31T00:33:56;12.80;;;9.63;;
42098;SDS011;27758;55.900;8.516;2023-08-31T00:36:22;15.38;;;10.45;;
42098;SDS011;27758;55.900;8.516;2023-08-31T00:38:48;15.05;;;10.45;;
42098;SDS011;27758;55.900;8.516;2023-08-31T00:41:14;16.05;;;10.55;;
42098;SDS011;27758;55.900;8.516;2023-08-31T00:43:40;13.63;;;10.63;;
42098;SDS011;27758;55.900;8.516;2023-08-31T00:46:05;15.32;;;10.25;;
42098;SDS011;27758;55.900;8.516;2023-08-31T00:48:31;14.95;;;10.65;;
42098;SDS011;27758;55.900;8.516;2023-08-31T00:50:57;16.02;;;10.60;;
42098;SDS011;27758;55.900;8.516;2023-08-31T00:53:23;13.30;;;9.07;;
42098;SDS011;27758;55.900;8.516;2023-08-31T00:55:49;14.40;;;9.38;;
42098;SDS011;27758;55.900;8.516;2023-08-31T00:58:14;12.40;;;9.27;;
42098;SDS011;27758;55.900;8.516;2023-08-31T01:03:27;13.00;;;9.35;;
42098;SDS011;27758;55.900;8.516;2023-08-31T01:06:08;12.10;;;9.18;;
42098;SDS011;27758;55.900;8.516;2023-08-31T01:11:22;13.75;;;9.65;;
42098;SDS011;27758;55.900;8.516;2023-08-31T01:13:53;12.90;;;9.50;;
42098;SDS011;27758;55.900;8.516;2023-08-31T01:16:34;13.57;;;9.13;;
42098;SDS011;27758;55.900;8.516;2023-08-31T01:19:03;12.15;;;9.15;;
42098;SDS011;27758;55.900;8.516;2023-08-31T01:21:37;12.00;;;8.98;;
42098;SDS011;27758;55.900;8.516;2023-08-31T01:24:05;13.13;;;9.00;;
42098;SDS011;27758;55.900;8.516;2023-08-31T01:26:31;13.38;;;9.85;;
42098;SDS011;27758;55.900;8.516;2023-08-31T01:28:57;13.90;;;8.90;;
42098;SDS011;27758;55.900;8.516;2023-08-31T01:31:24;9.77;;;7.90;;
42098;SDS011;27758;55.900;8.516;2023-08-31T01:33:50;12.00;;;8.40;;
42098;SDS011;27758;55.900;8.516;2023-08-31T01:36:29;11.27;;;8.82;;
42098;SDS011;27758;55.900;8.516;2023-08-31T01:39:02;13.50;;;8.70;;
42098;SDS011;27758;55.900;8.516;2023-08-31T01:41:43;11.48;;;8.27;;
42098;SDS011;27758;55.900;8.516;2023-08-31T01:44:16;14.90;;;9.70;;
42098;SDS011;27758;55.900;8.516;2023-08-31T01:46:52;11.18;;;7.78;;
42098;SDS011;27758;55.900;8.516;2023-08-31T01:49:21;11.07;;;8.38;;
42098;SDS011;27758;55.900;8.516;2023-08-31T01:51:46;12.45;;;7.55;;
42098;SDS011;27758;55.900;8.516;2023-08-31T01:54:12;12.65;;;8.50;;
42098;SDS011;27758;55.900;8.516;2023-08-31T01:56:38;12.32;;;7.75;;
42098;SDS011;27758;55.900;8.516;2023-08-31T01:59:04;12.18;;;8.60;;
42098;SDS011;27758;55.900;8.516;2023-08-31T02:01:32;11.63;;;8.52;;
42098;SDS011;27758;55.900;8.516;2023-08-31T02:03:58;11.73;;;8.32;;
42098;SDS011;27758;55.900;8.516;2023-08-31T02:06:23;11.48;;;7.72;;
42098;SDS011;27758;55.900;8.516;2023-08-31T02:08:49;15.00;;;8.45;;
42098;SDS011;27758;55.900;8.516;2023-08-31T02:11:15;10.00;;;8.38;;
42098;SDS011;27758;55.900;8.516;2023-08-31T02:13:41;11.77;;;8.27;;
42098;SDS011;27758;55.900;8.516;2023-08-31T02:16:07;10.77;;;7.78;;
42098;SDS011;27758;55.900;8.516;2023-08-31T02:18:33;11.20;;;8.63;;
42098;SDS011;27758;55.900;8.516;2023-08-31T02:20:58;10.50;;;7.95;;
42098;SDS011;27758;55.900;8.516;2023-08-31T02:23:24;12.27;;;8.38;;
42098;SDS011;27758;55.900;8.516;2023-08-31T02:25:50;10.20;;;8.38;;
42098;SDS011;27758;55.900;8.516;2023-08-31T02:28:15;13.18;;;9.25;;
42098;SDS011;27758;55.900;8.516;2023-08-31T02:30:44;10.70;;;8.65;;
42098;SDS011;27758;55.900;8.516;2023-08-31T02:33:11;11.20;;;8.55;;
42098;SDS011;27758;55.900;8.516;2023-08-31T02:35:37;12.93;;;9.10;;
42098;SDS011;27758;55.900;8.516;2023-08-31T02:38:02;11.88;;;9.48;;
42098;SDS011;27758;55.900;8.516;2023-08-31T02:40:28;15.55;;;10.93;;
42098;SDS011;27758;55.900;8.516;2023-08-31T02:42:54;13.25;;;9.77;;
42098;SDS011;27758;55.900;8.516;2023-08-31T02:45:19;14.77;;;10.18;;
42098;SDS011;27758;55.900;8.516;2023-08-31T02:47:45;12.52;;;10.60;;
42098;SDS011;27758;55.900;8.516;2023-08-31T02:50:12;13.63;;;10.55;;
42098;SDS011;27758;55.900;8.516;2023-08-31T02:52:37;17.45;;;11.52;;
42098;SDS011;27758;55.900;8.516;2023-08-31T02:55:03;14.63;;;10.73;;
42098;SDS011;27758;55.900;8.516;2023-08-31T02:57:29;15.52;;;12.25;;
42098;SDS011;27758;55.900;8.516;2023-08-31T02:59:55;14.85;;;11.38;;
42098;SDS011;27758;55.900;8.516;2023-08-31T03:02:21;13.88;;;11.35;;
42098;SDS011;27758;55.900;8.516;2023-08-31T03:04:47;14.65;;;11.45;;
42098;SDS011;27758;55.900;8.516;2023-08-31T03:07:13;14.27;;;12.02;;
42098;SDS011;27758;55.900;8.516;2023-08-31T03:09:40;15.15;;;12.20;;
42098;SDS011;27758;55.900;8.516;2023-08-31T03:12:06;15.77;;;12.57;;
42098;SDS011;27758;55.900;8.516;2023-08-31T03:14:32;15.25;;;12.52;;
42098;SDS011;27758;55.900;8.516;2023-08-31T03:16:57;16.95;;;12.95;;
42098;SDS011;27758;55.900;8.516;2023-08-31T03:19:23;18.00;;;12.48;;
42098;SDS011;27758;55.900;8.516;2023-08-31T03:21:49;15.13;;;12.18;;
42098;SDS011;27758;55.900;8.516;2023-08-31T03:24:15;18.17;;;13.80;;
42098;SDS011;27758;55.900;8.516;2023-08-31T03:26:41;15.88;;;12.95;;
42098;SDS011;27758;55.900;8.516;2023-08-31T03:29:06;20.52;;;12.60;;
42098;SDS011;27758;55.900;8.516;2023-08-31T03:31:33;16.90;;;13.10;;
42098;SDS011;27758;55.900;8.516;2023-08-31T03:33:58;14.77;;;12.02;;
42098;SDS011;27758;55.900;8.516;2023-08-31T03:36:24;15.80;;;13.07;;
42098;SDS011;27758;55.900;8.516;2023-08-31T03:38:50;16.05;;;12.05;;
42098;SDS011;27758;55.900;8.516;2023-08-31T03:41:15;15.15;;;12.88;;
42098;SDS011;27758;55.900;8.516;2023-08-31T03:43:41;14.77;;;12.98;;
42098;SDS011;27758;55.900;8.516;2023-08-31T03:46:07;18.13;;;13.70;;
42098;SDS011;27758;55.900;8.516;2023-08-31T03:48:32;15.63;;;12.55;;
42098;SDS011;27758;55.900;8.516;2023-08-31T03:50:58;19.80;;;12.48;;
42098;SDS011;27758;55.900;8.516;2023-08-31T03:53:24;15.88;;;12.55;;
42098;SDS011;27758;55.900;8.516;2023-08-31T03:55:49;18.95;;;13.60;;
42098;SDS011;27758;55.900;8.516;2023-08-31T03:58:15;15.65;;;11.95;;
42098;SDS011;27758;55.900;8.516;2023-08-31T04:00:41;17.00;;;12.73;;
42098;SDS011;27758;55.900;8.516;2023-08-31T04:03:07;18.90;;;13.23;;
42098;SDS011;27758;55.900;8.516;2023-08-31T04:05:34;13.50;;;11.25;;
42098;SDS011;27758;55.900;8.516;2023-08-31T04:08:01;16.50;;;13.18;;
42098;SDS011;27758;55.900;8.516;2023-08-31T04:10:27;14.65;;;11.88;;
42098;SDS011;27758;55.900;8.516;2023-08-31T04:12:54;17.30;;;12.60;;
42098;SDS011;27758;55.900;8.516;2023-08-31T04:15:20;15.15;;;11.65;;
42098;SDS011;27758;55.900;8.516;2023-08-31T04:17:46;17.08;;;12.00;;
42098;SDS011;27758;55.900;8.516;2023-08-31T04:20:12;13.85;;;11.60;;
42098;SDS011;27758;55.900;8.516;2023-08-31T04:22:38;14.63;;;11.60;;
42098;SDS011;27758;55.900;8.516;2023-08-31T04:25:04;15.82;;;12.32;;
42098;SDS011;27758;55.900;8.516;2023-08-31T04:27:29;16.92;;;12.68;;
42098;SDS011;27758;55.900;8.516;2023-08-31T04:29:58;14.23;;;11.02;;
42098;SDS011;27758;55.900;8.516;2023-08-31T04:32:25;14.48;;;11.43;;
42098;SDS011;27758;55.900;8.516;2023-08-31T04:34:51;16.45;;;11.20;;
42098;SDS011;27758;55.900;8.516;2023-08-31T04:37:17;15.52;;;12.30;;
42098;SDS011;27758;55.900;8.516;2023-08-31T04:39:42;15.15;;;10.88;;
42098;SDS011;27758;55.900;8.516;2023-08-31T04:42:08;20.58;;;12.20;;
42098;SDS011;27758;55.900;8.516;2023-08-31T04:44:34;16.42;;;11.40;;
42098;SDS011;27758;55.900;8.516;2023-08-31T04:47:00;17.45;;;11.73;;
42098;SDS011;27758;55.900;8.516;2023-08-31T04:49:26;13.32;;;10.02;;
42098;SDS011;27758;55.900;8.516;2023-08-31T04:51:52;14.18;;;10.32;;
42098;SDS011;27758;55.900;8.516;2023-08-31T04:54:17;13.98;;;10.27;;
42098;SDS011;27758;55.900;8.516;2023-08-31T04:56:43;14.60;;;9.90;;
42098;SDS011;27758;55.900;8.516;2023-08-31T04:59:09;14.55;;;9.55;;
42098;SDS011;27758;55.900;8.516;2023-08-31T05:01:35;12.23;;;9.18;;
42098;SDS011;27758;55.900;8.516;2023-08-31T05:04:01;14.50;;;11.05;;
42098;SDS011;27758;55.900;8.516;2023-08-31T05:06:27;14.05;;;10.65;;
42098;SDS011;27758;55.900;8.516;2023-08-31T05:08:53;13.82;;;11.40;;
42098;SDS011;27758;55.900;8.516;2023-08-31T05:11:19;14.77;;;11.00;;
42098;SDS011;27758;55.900;8.516;2023-08-31T05:13:44;13.52;;;11.13;;
42098;SDS011;27758;55.900;8.516;2023-08-31T05:16:10;13.95;;;11.00;;
42098;SDS011;27758;55.900;8.516;2023-08-31T05:18:37;15.50;;;12.18;;
42098;SDS011;27758;55.900;8.516;2023-08-31T05:21:05;16.40;;;12.85;;
42098;SDS011;27758;55.900;8.516;2023-08-31T05:23:30;17.88;;;13.05;;
42098;SDS011;27758;55.900;8.516;2023-08-31T05:25:57;16.92;;;12.70;;
42098;SDS011;27758;55.900;8.516;2023-08-31T05:28:23;16.38;;;13.40;;
42098;SDS011;27758;55.900;8.516;2023-08-31T05:30:49;17.55;;;13.60;;
42098;SDS011;27758;55.900;8.516;2023-08-31T05:33:16;18.25;;;14.35;;
42098;SDS011;27758;55.900;8.516;2023-08-31T05:35:42;18.60;;;13.88;;
42098;SDS011;27758;55.900;8.516;2023-08-31T05:38:08;16.73;;;13.55;;
42098;SDS011;27758;55.900;8.516;2023-08-31T05:40:34;15.65;;;12.85;;
42098;SDS011;27758;55.900;8.516;2023-08-31T05:43:00;16.63;;;12.52;;
42098;SDS011;27758;55.900;8.516;2023-08-31T05:45:25;15.80;;;12.15;;
42098;SDS011;27758;55.900;8.516;2023-08-31T05:47:51;14.93;;;12.02;;
42098;SDS011;27758;55.900;8.516;2023-08-31T05:50:17;17.85;;;12.63;;
42098;SDS011;27758;55.900;8.516;2023-08-31T05:52:42;15.02;;;12.10;;
42098;SDS011;27758;55.900;8.516;2023-08-31T05:55:09;14.65;;;11.32;;
42098;SDS011;27758;55.900;8.516;2023-08-31T05:57:35;17.92;;;13.23;;
42098;SDS011;27758;55.900;8.516;2023-08-31T06:00:03;18.40;;;14.07;;
42098;SDS011;27758;55.900;8.516;2023-08-31T06:02:30;19.38;;;14.38;;
42098;SDS011;27758;55.900;8.516;2023-08-31T06:04:56;18.10;;;14.80;;
42098;SDS011;27758;55.900;8.516;2023-08-31T06:07:22;17.40;;;14.77;;
42098;SDS011;27758;55.900;8.516;2023-08-31T06:09:47;19.65;;;14.88;;
42098;SDS011;27758;55.900;8.516;2023-08-31T06:12:13;21.00;;;16.65;;
42098;SDS011;27758;55.900;8.516;2023-08-31T06:14:39;19.85;;;15.57;;
42098;SDS011;27758;55.900;8.516;2023-08-31T06:17:04;19.13;;;14.68;;
42098;SDS011;27758;55.900;8.516;2023-08-31T06:19:33;19.50;;;15.10;;
42098;SDS011;27758;55.900;8.516;2023-08-31T06:21:58;19.00;;;15.65;;
42098;SDS011;27758;55.900;8.516;2023-08-31T06:24:24;20.27;;;14.40;;
42098;SDS011;27758;55.900;8.516;2023-08-31T06:26:50;15.52;;;12.90;;
42098;SDS011;27758;55.900;8.516;2023-08-31T06:29:17;16.60;;;13.63;;
42098;SDS011;27758;55.900;8.516;2023-08-31T06:31:42;18.88;;;13.15;;
42098;SDS011;27758;55.900;8.516;2023-08-31T06:34:08;15.05;;;12.07;;
42098;SDS011;27758;55.900;8.516;2023-08-31T06:36:34;15.32;;;11.65;;
42098;SDS011;27758;55.900;8.516;2023-08-31T06:39:00;14.60;;;11.30;;
42098;SDS011;27758;55.900;8.516;2023-08-31T06:41:25;11.77;;;8.63;;
42098;SDS011;27758;55.900;8.516;2023-08-31T06:43:51;11.25;;;9.35;;
42098;SDS011;27758;55.900;8.516;2023-08-31T06:46:17;13.45;;;8.85;;
42098;SDS011;27758;55.900;8.516;2023-08-31T06:48:43;11.65;;;9.30;;
42098;SDS011;27758;55.900;8.516;2023-08-31T06:51:09;11.10;;;9.00;;
42098;SDS011;27758;55.900;8.516;2023-08-31T06:53:34;11.98;;;8.32;;
42098;SDS011;27758;55.900;8.516;2023-08-31T06:56:00;11.57;;;8.77;;
42098;SDS011;27758;55.900;8.516;2023-08-31T06:58:26;12.18;;;9.30;;
42098;SDS011;27758;55.900;8.516;2023-08-31T07:00:51;12.07;;;8.95;;
42098;SDS011;27758;55.900;8.516;2023-08-31T07:03:17;12.23;;;9.68;;
42098;SDS011;27758;55.900;8.516;2023-08-31T07:05:43;13.93;;;9.32;;
42098;SDS011;27758;55.900;8.516;2023-08-31T07:08:09;11.30;;;8.10;;
42098;SDS011;27758;55.900;8.516;2023-08-31T07:10:35;10.98;;;8.90;;
42098;SDS011;27758;55.900;8.516;2023-08-31T07:13:04;13.35;;;9.50;;
42098;SDS011;27758;55.900;8.516;2023-08-31T07:15:30;11.02;;;8.38;;
42098;SDS011;27758;55.900;8.516;2023-08-31T07:17:56;12.07;;;8.80;;
42098;SDS011;27758;55.900;8.516;2023-08-31T07:20:21;12.88;;;7.10;;
42098;SDS011;27758;55.900;8.516;2023-08-31T07:22:47;10.27;;;7.78;;
42098;SDS011;27758;55.900;8.516;2023-08-31T07:25:13;9.35;;;6.57;;
42098;SDS011;27758;55.900;8.516;2023-08-31T07:27:39;7.85;;;4.97;;
42098;SDS011;27758;55.900;8.516;2023-08-31T07:30:05;7.18;;;4.88;;
42098;SDS011;27758;55.900;8.516;2023-08-31T07:32:31;6.38;;;4.95;;
42098;SDS011;27758;55.900;8.516;2023-08-31T07:34:57;7.18;;;4.78;;
42098;SDS011;27758;55.900;8.516;2023-08-31T07:37:23;8.73;;;4.65;;
42098;SDS011;27758;55.900;8.516;2023-08-31T07:39:49;6.05;;;4.07;;
42098;SDS011;27758;55.900;8.516;2023-08-31T07:42:15;4.90;;;3.97;;
42098;SDS011;27758;55.900;8.516;2023-08-31T07:44:40;5.72;;;4.30;;
42098;SDS011;27758;55.900;8.516;2023-08-31T07:47:09;7.95;;;4.18;;
42098;SDS011;27758;55.900;8.516;2023-08-31T07:49:35;3.25;;;2.88;;
42098;SDS011;27758;55.900;8.516;2023-08-31T07:52:01;5.32;;;2.88;;
42098;SDS011;27758;55.900;8.516;2023-08-31T07:54:27;4.35;;;2.65;;
42098;SDS011;27758;55.900;8.516;2023-08-31T07:56:53;6.82;;;2.65;;
42098;SDS011;27758;55.900;8.516;2023-08-31T07:59:19;3.92;;;2.35;;
42098;SDS011;27758;55.900;8.516;2023-08-31T08:01:45;4.60;;;2.88;;
42098;SDS011;27758;55.900;8.516;2023-08-31T08:04:11;8.30;;;2.63;;
42098;SDS011;27758;55.900;8.516;2023-08-31T08:06:37;5.05;;;2.60;;
42098;SDS011;27758;55.900;8.516;2023-08-31T08:09:03;4.28;;;2.60;;
42098;SDS011;27758;55.900;8.516;2023-08-31T08:11:29;4.22;;;2.50;;
42098;SDS011;27758;55.900;8.516;2023-08-31T08:13:56;3.80;;;2.33;;
42098;SDS011;27758;55.900;8.516;2023-08-31T08:16:22;5.15;;;2.50;;
42098;SDS011;27758;55.900;8.516;2023-08-31T08:18:48;3.17;;;2.30;;
42098;SDS011;27758;55.900;8.516;2023-08-31T08:21:14;2.72;;;1.80;;
42098;SDS011;27758;55.900;8.516;2023-08-31T08:23:40;4.45;;;2.30;;
42098;SDS011;27758;55.900;8.516;2023-08-31T08:26:06;6.57;;;1.75;;
42098;SDS011;27758;55.900;8.516;2023-08-31T08:28:31;2.85;;;1.77;;
42098;SDS011;27758;55.900;8.516;2023-08-31T08:31:00;4.82;;;2.08;;
42098;SDS011;27758;55.900;8.516;2023-08-31T08:33:32;4.35;;;2.38;;
42098;SDS011;27758;55.900;8.516;2023-08-31T08:38:25;4.80;;;2.10;;
42098;SDS011;27758;55.900;8.516;2023-08-31T08:40:50;3.00;;;1.98;;
42098;SDS011;27758;55.900;8.516;2023-08-31T08:43:16;2.25;;;1.42;;
42098;SDS011;27758;55.900;8.516;2023-08-31T08:45:50;3.63;;;1.00;;
42098;SDS011;27758;55.900;8.516;2023-08-31T08:48:16;3.60;;;1.08;;
42098;SDS011;27758;55.900;8.516;2023-08-31T08:50:43;3.50;;;1.17;;
42098;SDS011;27758;55.900;8.516;2023-08-31T08:53:10;2.05;;;1.10;;
42098;SDS011;27758;55.900;8.516;2023-08-31T08:55:38;2.80;;;1.20;;
42098;SDS011;27758;55.900;8.516;2023-08-31T08:58:05;2.20;;;0.93;;
42098;SDS011;27758;55.900;8.516;2023-08-31T09:00:31;3.63;;;1.40;;
42098;SDS011;27758;55.900;8.516;2023-08-31T09:02:57;9.25;;;1.75;;
42098;SDS011;27758;55.900;8.516;2023-08-31T09:05:25;2.65;;;1.15;;
42098;SDS011;27758;55.900;8.516;2023-08-31T09:08:05;3.70;;;1.30;;
42098;SDS011;27758;55.900;8.516;2023-08-31T09:10:38;2.60;;;1.10;;
42098;SDS011;27758;55.900;8.516;2023-08-31T09:13:12;3.20;;;1.30;;
42098;SDS011;27758;55.900;8.516;2023-08-31T09:15:44;4.70;;;0.90;;
42098;SDS011;27758;55.900;8.516;2023-08-31T09:18:15;3.15;;;1.20;;
42098;SDS011;27758;55.900;8.516;2023-08-31T09:20:44;3.55;;;1.15;;
42098;SDS011;27758;55.900;8.516;2023-08-31T09:23:12;3.53;;;0.95;;
42098;SDS011;27758;55.900;8.516;2023-08-31T09:25:57;3.83;;;1.52;;
42098;SDS011;27758;55.900;8.516;2023-08-31T09:28:23;2.13;;;1.00;;
42098;SDS011;27758;55.900;8.516;2023-08-31T09:30:52;2.40;;;1.33;;
42098;SDS011;27758;55.900;8.516;2023-08-31T09:33:19;1.58;;;0.82;;
42098;SDS011;27758;55.900;8.516;2023-08-31T09:35:52;5.45;;;1.58;;
42098;SDS011;27758;55.900;8.516;2023-08-31T09:38:20;1.52;;;0.98;;
42098;SDS011;27758;55.900;8.516;2023-08-31T09:40:46;9.40;;;1.15;;
42098;SDS011;27758;55.900;8.516;2023-08-31T09:43:17;6.63;;;1.42;;
42098;SDS011;27758;55.900;8.516;2023-08-31T09:45:48;2.13;;;0.70;;
42098;SDS011;27758;55.900;8.516;2023-08-31T09:48:15;2.10;;;0.90;;
42098;SDS011;27758;55.900;8.516;2023-08-31T09:50:42;1.98;;;0.95;;
42098;SDS011;27758;55.900;8.516;2023-08-31T09:53:10;2.42;;;0.68;;
42098;SDS011;27758;55.900;8.516;2023-08-31T09:55:38;1.60;;;0.80;;
42098;SDS011;27758;55.900;8.516;2023-08-31T09:58:05;1.00;;;0.90;;
42098;SDS011;27758;55.900;8.516;2023-08-31T10:00:32;2.53;;;0.93;;
42098;SDS011;27758;55.900;8.516;2023-08-31T10:05:28;5.35;;;1.08;;
42098;SDS011;27758;55.900;8.516;2023-08-31T10:07:54;3.35;;;1.13;;
42098;SDS011;27758;55.900;8.516;2023-08-31T10:10:20;3.17;;;0.90;;
42098;SDS011;27758;55.900;8.516;2023-08-31T10:12:50;2.22;;;0.88;;
42098;SDS011;27758;55.900;8.516;2023-08-31T10:15:17;2.42;;;0.90;;
42098;SDS011;27758;55.900;8.516;2023-08-31T10:17:44;1.73;;;0.95;;
42098;SDS011;27758;55.900;8.516;2023-08-31T10:20:17;1.15;;;0.73;;
42098;SDS011;27758;55.900;8.516;2023-08-31T10:22:43;1.02;;;0.80;;
42098;SDS011;27758;55.900;8.516;2023-08-31T10:25:09;3.47;;;0.90;;
42098;SDS011;27758;55.900;8.516;2023-08-31T10:27:41;1.88;;;0.85;;
42098;SDS011;27758;55.900;8.516;2023-08-31T10:35:41;3.33;;;0.80;;
42098;SDS011;27758;55.900;8.516;2023-08-31T10:38:14;1.83;;;0.75;;
42098;SDS011;27758;55.900;8.516;2023-08-31T10:40:40;1.38;;;0.70;;
42098;SDS011;27758;55.900;8.516;2023-08-31T10:43:15;7.22;;;1.27;;
42098;SDS011;27758;55.900;8.516;2023-08-31T10:45:44;1.58;;;0.60;;
42098;SDS011;27758;55.900;8.516;2023-08-31T10:48:11;1.58;;;0.88;;
42098;SDS011;27758;55.900;8.516;2023-08-31T10:50:43;1.80;;;0.80;;
42098;SDS011;27758;55.900;8.516;2023-08-31T10:53:12;1.30;;;0.88;;
42098;SDS011;27758;55.900;8.516;2023-08-31T10:55:53;2.13;;;0.90;;
42098;SDS011;27758;55.900;8.516;2023-08-31T10:58:19;1.55;;;0.90;;
42098;SDS011;27758;55.900;8.516;2023-08-31T11:00:52;1.88;;;0.65;;
42098;SDS011;27758;55.900;8.516;2023-08-31T11:03:18;1.55;;;0.90;;
42098;SDS011;27758;55.900;8.516;2023-08-31T11:05:50;2.22;;;0.90;;
42098;SDS011;27758;55.900;8.516;2023-08-31T11:08:21;2.58;;;0.88;;
42098;SDS011;27758;55.900;8.516;2023-08-31T11:10:48;2.55;;;1.10;;
42098;SDS011;27758;55.900;8.516;2023-08-31T11:13:21;2.53;;;1.00;;
42098;SDS011;27758;55.900;8.516;2023-08-31T11:15:48;3.05;;;1.00;;
42098;SDS011;27758;55.900;8.516;2023-08-31T11:18:14;2.83;;;1.00;;
42098;SDS011;27758;55.900;8.516;2023-08-31T11:20:42;4.53;;;0.88;;
42098;SDS011;27758;55.900;8.516;2023-08-31T11:23:09;4.00;;;1.17;;
42098;SDS011;27758;55.900;8.516;2023-08-31T11:25:35;2.17;;;0.80;;
42098;SDS011;27758;55.900;8.516;2023-08-31T11:28:02;1.42;;;0.70;;
42098;SDS011;27758;55.900;8.516;2023-08-31T11:30:30;0.70;;;0.65;;
42098;SDS011;27758;55.900;8.516;2023-08-31T11:33:00;2.70;;;0.77;;
42098;SDS011;27758;55.900;8.516;2023-08-31T11:35:32;1.48;;;0.68;;
42098;SDS011;27758;55.900;8.516;2023-08-31T11:38:02;2.38;;;0.80;;
42098;SDS011;27758;55.900;8.516;2023-08-31T11:40:29;2.50;;;0.82;;
42098;SDS011;27758;55.900;8.516;2023-08-31T11:42:56;3.00;;;0.93;;
42098;SDS011;27758;55.900;8.516;2023-08-31T11:45:22;2.50;;;1.00;;
42098;SDS011;27758;55.900;8.516;2023-08-31T11:47:49;1.38;;;0.80;;
42098;SDS011;27758;55.900;8.516;2023-08-31T11:50:15;2.75;;;0.75;;
42098;SDS011;27758;55.900;8.516;2023-08-31T11:52:41;2.38;;;0.70;;
42098;SDS011;27758;55.900;8.516;2023-08-31T11:55:11;2.13;;;0.70;;
42098;SDS011;27758;55.900;8.516;2023-08-31T11:57:38;1.88;;;0.95;;
42098;SDS011;27758;55.900;8.516;2023-08-31T12:00:04;2.05;;;1.00;;
42098;SDS011;27758;55.900;8.516;2023-08-31T12:02:34;1.85;;;0.75;;
42098;SDS011;27758;55.900;8.516;2023-08-31T12:05:01;1.85;;;0.77;;
42098;SDS011;27758;55.900;8.516;2023-08-31T12:07:27;2.42;;;0.90;;
42098;SDS011;27758;55.900;8.516;2023-08-31T12:09:53;2.80;;;1.33;;
42098;SDS011;27758;55.900;8.516;2023-08-31T12:12:22;3.15;;;0.77;;
42098;SDS011;27758;55.900;8.516;2023-08-31T12:14:52;3.47;;;0.70;;
42098;SDS011;27758;55.900;8.516;2023-08-31T12:17:18;1.92;;;0.82;;
42098;SDS011;27758;55.900;8.516;2023-08-31T12:19:44;1.30;;;0.80;;
42098;SDS011;27758;55.900;8.516;2023-08-31T12:22:10;1.23;;;0.60;;
42098;SDS011;27758;55.900;8.516;2023-08-31T12:24:39;1.80;;;0.85;;
42098;SDS011;27758;55.900;8.516;2023-08-31T12:27:06;1.90;;;0.80;;
42098;SDS011;27758;55.900;8.516;2023-08-31T12:29:33;3.03;;;0.85;;
42098;SDS011;27758;55.900;8.516;2023-08-31T12:31:59;3.25;;;0.70;;
42098;SDS011;27758;55.900;8.516;2023-08-31T12:34:25;13.13;;;1.80;;
42098;SDS011;27758;55.900;8.516;2023-08-31T12:36:51;1.85;;;0.73;;
42098;SDS011;27758;55.900;8.516;2023-08-31T12:39:17;1.33;;;0.77;;
42098;SDS011;27758;55.900;8.516;2023-08-31T12:41:43;3.28;;;0.88;;
42098;SDS011;27758;55.900;8.516;2023-08-31T12:44:09;0.85;;;0.75;;
42098;SDS011;27758;55.900;8.516;2023-08-31T12:46:35;1.40;;;0.73;;
42098;SDS011;27758;55.900;8.516;2023-08-31T12:49:01;4.28;;;1.10;;
42098;SDS011;27758;55.900;8.516;2023-08-31T12:51:29;5.22;;;1.65;;
42098;SDS011;27758;55.900;8.516;2023-08-31T12:53:55;4.03;;;1.42;;
42098;SDS011;27758;55.900;8.516;2023-08-31T12:56:22;3.58;;;1.38;;
42098;SDS011;27758;55.900;8.516;2023-08-31T12:58:51;1.60;;;1.40;;
42098;SDS011;27758;55.900;8.516;2023-08-31T13:01:18;2.17;;;1.20;;
42098;SDS011;27758;55.900;8.516;2023-08-31T13:03:45;2.13;;;1.30;;
42098;SDS011;27758;55.900;8.516;2023-08-31T13:06:12;3.75;;;1.50;;
42098;SDS011;27758;55.900;8.516;2023-08-31T13:08:41;3.67;;;1.27;;
42098;SDS011;27758;55.900;8.516;2023-08-31T13:11:08;1.90;;;1.38;;
42098;SDS011;27758;55.900;8.516;2023-08-31T13:13:34;2.47;;;1.33;;
42098;SDS011;27758;55.900;8.516;2023-08-31T13:16:00;3.45;;;1.73;;
42098;SDS011;27758;55.900;8.516;2023-08-31T13:18:26;3.28;;;1.23;;
42098;SDS011;27758;55.900;8.516;2023-08-31T13:20:52;1.05;;;0.80;;
42098;SDS011;27758;55.900;8.516;2023-08-31T13:23:19;1.90;;;0.80;;
42098;SDS011;27758;55.900;8.516;2023-08-31T13:25:46;2.55;;;1.00;;
42098;SDS011;27758;55.900;8.516;2023-08-31T13:28:12;2.20;;;1.15;;
42098;SDS011;27758;55.900;8.516;2023-08-31T13:30:38;4.15;;;1.23;;
42098;SDS011;27758;55.900;8.516;2023-08-31T13:33:03;2.75;;;1.10;;
42098;SDS011;27758;55.900;8.516;2023-08-31T13:35:29;4.47;;;1.63;;
42098;SDS011;27758;55.900;8.516;2023-08-31T13:37:55;2.97;;;1.58;;
42098;SDS011;27758;55.900;8.516;2023-08-31T13:40:21;2.72;;;1.20;;
42098;SDS011;27758;55.900;8.516;2023-08-31T13:42:54;2.65;;;1.30;;
42098;SDS011;27758;55.900;8.516;2023-08-31T13:45:26;3.75;;;1.95;;
42098;SDS011;27758;55.900;8.516;2023-08-31T13:47:52;2.42;;;1.60;;
42098;SDS011;27758;55.900;8.516;2023-08-31T13:50:18;2.92;;;1.60;;
42098;SDS011;27758;55.900;8.516;2023-08-31T13:52:44;3.85;;;1.75;;
42098;SDS011;27758;55.900;8.516;2023-08-31T13:55:10;2.40;;;1.50;;
42098;SDS011;27758;55.900;8.516;2023-08-31T13:57:36;2.40;;;1.80;;
42098;SDS011;27758;55.900;8.516;2023-08-31T14:00:06;1.73;;;1.20;;
42098;SDS011;27758;55.900;8.516;2023-08-31T14:02:34;1.80;;;1.45;;
42098;SDS011;27758;55.900;8.516;2023-08-31T14:05:04;5.10;;;2.28;;
42098;SDS011;27758;55.900;8.516;2023-08-31T14:07:31;3.00;;;1.73;;
42098;SDS011;27758;55.900;8.516;2023-08-31T14:09:57;2.85;;;1.70;;
42098;SDS011;27758;55.900;8.516;2023-08-31T14:12:23;2.20;;;1.55;;
42098;SDS011;27758;55.900;8.516;2023-08-31T14:14:50;1.30;;;1.17;;
42098;SDS011;27758;55.900;8.516;2023-08-31T14:17:16;1.60;;;1.30;;
42098;SDS011;27758;55.900;8.516;2023-08-31T14:19:42;3.42;;;1.50;;
42098;SDS011;27758;55.900;8.516;2023-08-31T14:22:08;4.32;;;1.83;;
42098;SDS011;27758;55.900;8.516;2023-08-31T14:24:35;3.50;;;1.80;;
42098;SDS011;27758;55.900;8.516;2023-08-31T14:27:02;4.20;;;1.95;;
42098;SDS011;27758;55.900;8.516;2023-08-31T14:29:28;2.95;;;1.80;;
42098;SDS011;27758;55.900;8.516;2023-08-31T14:31:54;3.63;;;1.83;;
42098;SDS011;27758;55.900;8.516;2023-08-31T14:34:21;2.00;;;1.48;;
42098;SDS011;27758;55.900;8.516;2023-08-31T14:36:47;2.22;;;1.67;;
42098;SDS011;27758;55.900;8.516;2023-08-31T14:39:13;2.60;;;2.00;;
42098;SDS011;27758;55.900;8.516;2023-08-31T14:41:40;4.10;;;1.95;;
42098;SDS011;27758;55.900;8.516;2023-08-31T14:44:06;5.35;;;1.88;;
42098;SDS011;27758;55.900;8.516;2023-08-31T14:46:31;5.30;;;2.20;;
42098;SDS011;27758;55.900;8.516;2023-08-31T14:48:58;2.28;;;1.70;;
42098;SDS011;27758;55.900;8.516;2023-08-31T14:51:23;1.90;;;1.70;;